Meteo4 di Emilio Bellavite Il primo osservatorio Meteo di Verona  
 
lunedì 24 settembre 2018
 
 
dati in tempo reale
Di seguito i dati in tempo reale delle stazioni on line della rete di Meteo4. Cliccando sul link della stazione, ove presente, si accederà al sito web personale.
Stazioni online
Località Giorno Ora Temp. Umid. Relat. Dew Point Press. Atm. Velocità Vento Direz. Vento Precip. Temp.
Min
Temp.
Max
Abano (PD) 24/09/18 10.55 23.2 °C 83 % 20.1 °C 1015.2 hPa 1.6 Km/h E 0.0 mm  18.4 °C 23.2 °C
Acquapendente (VT) 24/09/18 10.58 25.4 °C 76 % 20.9 °C 1014.8 hPa 45.7 Km/h NNW 0.0 mm  17.9 °C 25.4 °C
Acquaviva delle Fonti (BA) 24/09/18 10.58 27.9 °C 51 % 16.9 °C 1014.4 hPa 4.6 Km/h WSW 0.0 mm  19.2 °C 28.0 °C
Ala (TN) 24/09/18 10.58 23.4 °C 27 % 3.3 °C 1016.3 hPa 13.0 Km/h NNE 0.0 mm  18.2 °C 23.4 °C
Alleghe (BL) 24/09/18 10.58 15.9 °C 44 % 3.7 °C 1008.1 hPa 3.3 Km/h WSW 2.0 mm  8.4 °C 15.9 °C
Alleghe Lago (BL) 24/09/18 10.58 12.3 °C 48 % 1.6 °C 1021.4 hPa 14.8 Km/h NE 0.5 mm  7.9 °C 15.8 °C
Ancona (AN) 24/09/18 10.50 24.8 °C 70 % 19.0 °C 1014.6 hPa 3.2 Km/h WNW 0.0 mm  19.3 °C 25.7 °C
Ancona loc. Brecce Bianche (AN) 24/09/18 10.48 24.2 °C 67 % 17.7 °C 1020.9 hPa 8.2 Km/h NW 0.0 mm  19.4 °C 24.6 °C
Ardea (RM) 24/09/18 10.58 26.6 °C 75 % 21.8 °C 1015.6 hPa 3.0 Km/h SW 0.0 mm  21.2 °C 26.6 °C
Arenzano (GE) 24/09/18 10.58 27.0 °C 43 % 13.3 °C 1014.4 hPa 22.5 Km/h N 2.0 mm  20.8 °C 27.1 °C
Arquà Polesine (RO) 24/09/18 10.58 23.4 °C 79 % 19.5 °C 1017.0 hPa 1.6 Km/h WNW 0.0 mm  18.7 °C 24.0 °C
Arzignano loc. Castello (VI) 24/09/18 10.00 23.6 °C 43 % 10.2 °C 1011.9 hPa 0.0 Km/h --- 0.0 mm  17.3 °C 24.0 °C
Arzignano San Bortolo (VI) 24/09/18 10.49 24.6 °C 27 % 4.4 °C 1012.5 hPa 16.1 Km/h NNE 0.0 mm  17.7 °C 24.6 °C
Arzignano Tezze (VI) 24/09/18 10.50 26.2 °C 30 % 7.3 °C 1014.4 hPa 6.4 Km/h NNW 0.0 mm  15.7 °C 26.2 °C
Avio (TN) 24/09/18 10.59 26.1 °C 25 % 4.5 °C 1016.4 hPa 5.0 Km/h S 0.0 mm  22.3 °C 26.1 °C
Badia Calavena loc. San Valentino (VR) 24/09/18 10.58 21.0 °C 35 % 4.9 °C 1012.5 hPa 8.0 Km/h E 0.0 mm  15.8 °C 21.7 °C
Barbara (AN) 24/09/18 10.58 24.5 °C 67 % 18.0 °C 1016.3 hPa 9.4 Km/h W 0.0 mm  22.9 °C 25.1 °C
Barcellona P.G. Centro (ME) 24/09/18 10.58 27.0 °C 68 % 20.6 °C 1016.2 hPa 4.8 Km/h NW 0.0 mm  21.8 °C 27.7 °C
Barcellona Pozzo di Gotto (ME) 24/09/18 10.58 26.7 °C 64 % 19.3 °C 1015.2 hPa 4.1 Km/h NNE 0.0 mm  22.2 °C 26.9 °C
Bardolino (VR) 24/09/18 10.58 24.8 °C 27 % 4.4 °C 1007.8 hPa 24.0 Km/h ENE 0.0 mm  20.1 °C 24.8 °C
Beccacivetta (VR) 24/09/18 10.49 24.1 °C 67 % 17.6 °C 1014.4 hPa 6.4 Km/h E 0.0 mm  18.3 °C 24.1 °C
Bellaria Igea Marina (RN) 24/09/18 10.58 24.4 °C 73 % 19.2 °C 1014.2 hPa 8.0 Km/h WNW 0.0 mm  20.6 °C 24.5 °C
Bellaria Igea Marina2 (RN) 24/09/18 10.55 24.6 °C 75 % 19.9 °C 1013.5 hPa 11.3 Km/h NNW 0.0 mm  20.8 °C 24.7 °C
Bellaria Igea Marina3 (RN) 24/09/18 10.58 24.6 °C 72 % 19.2 °C 1012.7 hPa 6.1 Km/h NW 0.0 mm  19.2 °C 24.6 °C
Belluno Castion (BL) 24/09/18 10.30 20.6 °C 33 % 3.7 °C 1015.1 hPa 11.3 Km/h NNE 0.0 mm  14.2 °C 20.7 °C
Bernate Ticino fraz. Casate (MI) 24/09/18 10.59 24.4 °C 28 % 4.6 °C 1013.7 hPa 15.8 Km/h E 0.0 mm  16.9 °C 24.4 °C
Besenello (TN) 24/09/18 10.58 22.7 °C 30 % 4.2 °C 1018.0 hPa 18.5 Km/h W 0.0 mm  20.1 °C 22.7 °C
Bientina (PI) 24/09/18 10.58 24.9 °C 72 % 19.5 °C 1013.6 hPa 2.5 Km/h NW 0.0 mm  20.7 °C 24.9 °C
Bisignano (CS) 24/09/18 10.59 28.0 °C 50 % 16.6 °C 1014.0 hPa 15.8 Km/h S 0.0 mm  19.2 °C 28.0 °C
Bitti (NU) 24/09/18 10.58 23.1 °C 70 % 17.4 °C 1018.4 hPa 17.6 Km/h NE 0.0 mm  19.1 °C 23.2 °C
Bolognano di Arco (TN) 24/09/18 10.58 23.9 °C 32 % 6.2 °C 1017.1 hPa 0.0 Km/h S 0.0 mm  19.9 °C 23.9 °C
Bonorva (SS) 24/09/18 02.00 19.3 °C 91 % 17.8 °C 1017.7 hPa 6.4 Km/h SSW 0.0 mm  19.1 °C 19.5 °C
Borgo Valsugana (TN) 24/09/18 10.49 22.0 °C 25 % 1.1 °C 1016.8 hPa 7.6 Km/h NNW 0.0 mm  16.1 °C 22.0 °C
Borore (NU) 24/09/18 10.59 24.9 °C 69 % 18.9 °C 1016.3 hPa 21.7 Km/h NW 0.0 mm  18.9 °C 25.0 °C
Brendola (VI) 24/09/18 10.58 27.8 °C 62 % 19.8 °C 1000.9 hPa 2.5 Km/h NW 0.0 mm  18.7 °C 28.1 °C
Brolo c/da Parrazzà (ME) 24/09/18 10.55 25.1 °C 78 % 21.0 °C 1016.6 hPa 5.0 Km/h NW 0.0 mm  21.2 °C 25.3 °C
Brugine2 (PD) 24/09/18 10.56 21.9 °C 80 % 18.3 °C 1015.7 hPa 2.2 Km/h ESE 0.0 mm  17.5 °C 21.9 °C
Budoia (PN) 24/09/18 10.45 24.2 °C 45 % 11.5 °C 1015.2 hPa 3.2 Km/h ESE 0.0 mm  17.8 °C 24.2 °C
Ca' Gallo (PU) 24/09/18 10.38 25.1 °C 70 % 19.3 °C 1010.4 hPa 4.3 Km/h WSW 0.0 mm  22.2 °C 25.1 °C
Calcinato (BS) 24/09/18 10.58 24.9 °C 31 % 6.6 °C 1017.0 hPa 27.4 Km/h E 0.0 mm  20.3 °C 25.2 °C
Caltabellotta (AG) 24/09/18 10.50 19.9 °C 91 % 18.4 °C 1016.7 hPa 0.0 Km/h N 0.4 mm  17.6 °C 20.3 °C
Cammarata (AG) 24/09/18 10.58 20.9 °C 63 % 13.6 °C 1018.8 hPa 3.6 Km/h NE 0.0 mm  16.1 °C 20.9 °C
Campoformido (UD) 24/09/18 10.57 21.8 °C 54 % 12.0 °C 1017.4 hPa 7.0 Km/h E 1.0 mm  18.2 °C 21.7 °C
Capodimonte (VT) 24/09/18 10.55 23.5 °C 84 % 20.6 °C 1015.5 hPa 1.3 Km/h WSW 0.0 mm  20.3 °C 23.6 °C
Caprarola Centro Storico (VT) 24/09/18 10.58 22.1 °C 80 % 18.5 °C 1016.0 hPa 5.8 Km/h ESE 0.0 mm  18.7 °C 22.5 °C
Carceri (PD) 24/09/18 10.45 22.9 °C 82 % 20.0 °C 1014.4 hPa 0.0 Km/h N 0.0 mm  17.8 °C 22.9 °C
Carmignano loc. Seano (PO) 24/09/18 10.59 25.1 °C 72 % 19.7 °C 1014.3 hPa 0.0 Km/h NNE 0.0 mm  21.3 °C 25.1 °C
Carpi (MO) 24/09/18 10.59 25.3 °C 65 % 18.3 °C 1014.4 hPa 5.4 Km/h W 0.0 mm  18.0 °C 25.6 °C
Cartigliano (VI) 24/09/18 10.58 26.5 °C 17 % -0.6 °C 1014.2 hPa 2.6 Km/h NNW 0.0 mm  16.1 °C 26.7 °C
Cassano Magnago (VA) 24/09/18 10.49 24.0 °C 25 % 2.8 °C 1014.4 hPa 9.7 Km/h S 0.0 mm  18.1 °C 24.0 °C
Castel d'Azzano (VR) 24/09/18 10.45 23.8 °C 68 % 17.6 °C 891.8 hPa 1.6 Km/h WSW 0.0 mm  18.6 °C 23.8 °C
Castelferro (AL) 24/09/18 10.58 25.6 °C 27 % 5.2 °C 1015.6 hPa 9.7 Km/h NNE 0.0 mm  18.5 °C 25.6 °C
Castelfranco Veneto (TV) 24/09/18 10.50 24.1 °C 66 % 17.3 °C 1015.1 hPa 2.2 Km/h E 0.0 mm  18.4 °C 24.1 °C
Castelgomberto (VI) 24/09/18 10.59 26.1 °C 21 % 2.1 °C 1014.3 hPa 10.0 Km/h ENE 0.0 mm  17.4 °C 26.3 °C
Castelnuovo V.C. (PI) 24/09/18 10.50 23.8 °C 75 % 19.1 °C 1013.2 hPa 1.7 Km/h NNW 0.0 mm  17.6 °C 23.8 °C
Castiglione del Lago (PG) 24/09/18 10.50 24.3 °C 79 % 20.4 °C 1016.6 hPa 1.6 Km/h NW 0.0 mm  17.2 °C 25.3 °C
Cavazzale (VI) 24/09/18 08.55 18.9 °C 90 % 17.2 °C 1012.3 hPa 0.0 Km/h --- 0.0 mm  16.9 °C 19.1 °C
Cefalù (PA) 24/09/18 10.58 26.1 °C 64 % 18.8 °C 1013.0 hPa 6.1 Km/h W 0.0 mm  22.3 °C 26.3 °C
Cerea (VR) 24/09/18 07.30 20.2 °C 87 % 18.0 °C 1010.1 hPa 8.0 Km/h WSW 0.0 mm  17.6 °C 20.3 °C
Cerea2 (VR) 24/09/18 10.45 25.1 °C 53 % 14.8 °C 1015.9 hPa 14.5 Km/h E 0.0 mm  18.4 °C 25.6 °C
Cima Grappa (TV) 24/09/18 10.58 9.6 °C 52 % 0.2 °C 1016.6 hPa 28.5 Km/h NNE 0.0 mm  8.7 °C 11.6 °C
Cismon del Grappa loc. Corlo (VI) 24/09/18 10.59 21.8 °C 36 % 6.1 °C 1018.6 hPa 4.6 Km/h SSW 0.0 mm  16.6 °C 21.8 °C
Civita Castellana (VT) 24/09/18 10.59 26.1 °C 71 % 20.4 °C 1015.1 hPa 6.5 Km/h SE 0.0 mm  19.6 °C 26.1 °C
Codroipo (UD) 24/09/18 10.59 23.9 °C 22 % 0.9 °C 1016.5 hPa 25.1 Km/h SE 0.0 mm  18.1 °C 23.9 °C
Cogollo del Cengio (VI) 24/09/18 10.56 23.6 °C 10 % -9.8 °C 1015.2 hPa 15.3 Km/h N 0.0 mm  16.5 °C 23.6 °C
Colle S. Lucia Posalz (BL) 23/09/18 16.34 35.2 °C 99 % 35.0 °C 1026.2 hPa 18.2 Km/h SSE 0.0 mm  12.7 °C 40.6 °C
Cologna Veneta Sant'Andrea (VR) 24/09/18 10.50 24.1 °C 73 % 18.9 °C 1014.9 hPa 8.0 Km/h ENE 0.0 mm  16.9 °C 24.1 °C
Colognola ai Colli (VR) 24/09/18 10.50 24.9 °C 60 % 16.6 °C 1014.6 hPa 4.8 Km/h SSE 0.0 mm  16.6 °C 24.9 °C
Corrubio di S. Anna d'Alfaedo (VR) 24/09/18 10.55 18.8 °C 37 % 3.8 °C 1016.0 hPa 14.5 Km/h NW 0.0 mm  16.3 °C 18.8 °C
Cosseria Lidora (SV) 24/09/18 10.45 21.2 °C 82 % 18.0 °C 1014.3 hPa 8.0 Km/h WNW 0.0 mm  17.1 °C 21.5 °C
Costa di Vittorio Veneto (TV) 24/09/18 10.49 24.7 °C 21 % 0.9 °C 1014.1 hPa 7.9 Km/h N 0.0 mm  17.4 °C 24.7 °C
Costa Volpino (BG) 24/09/18 10.49 24.4 °C 12 % -6.9 °C 1011.8 hPa 9.4 Km/h ENE 0.0 mm  18.2 °C 24.4 °C
Dorno (PV) 24/09/18 10.59 25.4 °C 28 % 5.6 °C 1015.4 hPa 16.5 Km/h NNE 0.0 mm  19.7 °C 25.4 °C
Dossobuono (VR) 24/09/18 10.59 24.9 °C 65 % 17.8 °C 1016.1 hPa 8.0 Km/h ESE 0.0 mm  18.7 °C 25.2 °C
Erbezzo Passo Fittanze (VR) 24/09/18 10.51 11.7 °C 49 % 1.3 °C 1018.2 hPa 41.0 Km/h NNW 0.0 mm  10.9 °C 13.9 °C
Esine (BS) 24/09/18 10.58 24.8 °C 20 % 0.3 °C 1014.9 hPa 16.3 Km/h E 0.0 mm  20.0 °C 24.8 °C
Falzè di Piave (TV) 24/09/18 10.58 25.5 °C 23 % 2.8 °C 1016.7 hPa 5.0 Km/h NE 0.0 mm  17.2 °C 25.6 °C
Farra di Soligo (TV) 24/09/18 10.58 24.3 °C 45 % 11.6 °C 1013.0 hPa 2.2 Km/h N 0.0 mm  16.7 °C 24.3 °C
Feltre Celarda (BL) 24/09/18 10.59 24.4 °C 36 % 8.4 °C 1014.9 hPa 0.0 Km/h ENE 0.0 mm  15.1 °C 24.4 °C
Ferrara di M.B. (VR) 24/09/18 10.40 14.0 °C 38 % -0.1 °C 1012.2 hPa 19.3 Km/h NNE 0.0 mm  12.2 °C 16.6 °C
Fiavè loc. Ballino (TN) 24/09/18 10.59 18.4 °C 45 % 6.3 °C 1017.1 hPa 6.5 Km/h N 0.2 mm  11.8 °C 18.4 °C
Filo di Argenta (FE) 24/09/18 10.55 23.7 °C 71 % 18.1 °C 1015.3 hPa 8.0 Km/h NW 0.0 mm  18.2 °C 24.1 °C
Fogliano Redipuglia (GO) 24/09/18 10.59 22.0 °C 45 % 9.5 °C 1017.5 hPa 26.6 Km/h E 0.0 mm  19.8 °C 22.1 °C
Foligno (PG) 24/09/18 10.40 23.3 °C 72 % 17.9 °C 1014.5 hPa 4.8 Km/h NNE 0.0 mm  21.5 °C 23.4 °C
Fontanafredda (PN) 24/09/18 10.59 25.2 °C 40 % 10.7 °C 1015.3 hPa 7.4 Km/h E 1.3 mm  16.9 °C 25.2 °C
Fumane Contrada La Ca (VR) 24/09/18 10.49 23.1 °C 23 % 0.8 °C 1018.2 hPa 19.3 Km/h N 0.0 mm  18.1 °C 23.3 °C
Gaggiano (MI) 24/09/18 10.59 25.2 °C 24 % 3.2 °C 1015.0 hPa 24.3 Km/h NNW 0.0 mm  18.7 °C 25.2 °C
Gallio (VI) 24/09/18 10.45 16.3 °C 35 % 0.8 °C 1016.5 hPa 6.4 Km/h NNE 0.0 mm  11.2 °C 16.6 °C
Gardolo (TN) 24/09/18 10.58 23.2 °C 32 % 5.6 °C 1019.3 hPa 10.1 Km/h NE 0.0 mm  19.2 °C 22.4 °C
Genova Erzelli (GE) 24/09/18 10.53 27.2 °C 57 % 17.9 °C 1013.2 hPa 6.4 Km/h N 0.0 mm  21.7 °C 27.2 °C
Gradisca d'Isonzo (GO) 24/09/18 10.59 0.0 °C 0 % 14.3 °C 1017.7 hPa 0.0 Km/h N 0.0 mm  0.0 °C 0.0 °C
Iglesias (CI) 24/09/18 10.59 26.4 °C 69 % 20.3 °C 1019.3 hPa 4.7 Km/h NNE 0.0 mm  22.4 °C 26.4 °C
Isera loc. Reviano (TN) 24/09/18 10.59 22.5 °C 28 % 3.1 °C 1016.6 hPa 15.6 Km/h NW 0.0 mm  17.4 °C 22.7 °C
Isola d'Elba Marina di Campo (LI) 24/09/18 10.30 25.9 °C 81 % 22.4 °C 567.0 hPa 8.0 Km/h SSE 0.0 mm  23.6 °C 26.4 °C
Jesolo (VE) 24/09/18 05.15 22.1 °C 60 % 13.9 °C 1013.2 hPa 19.3 Km/h ENE 0.0 mm  19.3 °C 22.6 °C
Lavis (TN) 24/09/18 10.55 22.7 °C 29 % 3.9 °C 1019.4 hPa 19.3 Km/h N 0.0 mm  19.3 °C 23.1 °C
Laxolo (BG) 24/09/18 10.56 23.1 °C 30 % 4.6 °C 1017.0 hPa 0.0 Km/h W 0.0 mm  15.9 °C 24.3 °C
Legnago (VR) 24/09/18 10.55 24.8 °C 72 % 19.4 °C 1015.1 hPa 8.0 Km/h NE 0.0 mm  18.4 °C 26.3 °C
Lendinara2 (RO) 24/09/18 10.50 22.9 °C 77 % 18.7 °C 1015.5 hPa 3.2 Km/h NE 0.0 mm  17.9 °C 23.6 °C
Lesmo (MB) 24/09/18 10.50 23.7 °C 26 % 3.1 °C 1015.3 hPa 14.5 Km/h NNW 0.0 mm  17.5 °C 23.7 °C
Loano (SV) 24/09/18 10.55 26.7 °C 60 % 18.3 °C 1013.6 hPa 24.0 Km/h NNE 0.2 mm  21.6 °C 26.8 °C
Lovere (BG) 24/09/18 10.48 25.2 °C 48 % 0.0 °C 1016.0 hPa 12.2 Km/h NNE 0.0 mm  19.9 °C 25.2 °C
Lugagnano (VR) 24/09/18 10.58 25.7 °C 48 % 13.9 °C 1013.2 hPa 14.5 Km/h ESE 0.0 mm  18.9 °C 25.7 °C
Lusiana Sciessere (VI) 24/09/18 10.58 19.3 °C 29 % 0.8 °C 1018.6 hPa 25.9 Km/h WSW 0.0 mm  15.7 °C 19.6 °C
Magnano (BI) 24/09/18 10.59 22.4 °C 49 % 11.2 °C 1016.9 hPa 2.7 Km/h E 0.0 mm  1.2 °C 22.5 °C
Malnate San Salvatore (VA) 24/09/18 10.55 21.7 °C 30 % 3.4 °C 1016.7 hPa 16.1 Km/h NNW 0.0 mm  16.9 °C 21.7 °C
Marano Vicentino2 (VI) 24/09/18 10.55 24.4 °C 27 % 4.2 °C 1014.5 hPa 0.0 Km/h SSW 0.0 mm  16.3 °C 24.3 °C
Margone (TN) 24/09/18 10.55 15.9 °C 41 % 2.6 °C 1020.1 hPa 19.3 Km/h NNW 0.2 mm  13.4 °C 16.6 °C
Marina di Montemarciano (AN) 24/09/18 10.50 25.4 °C 71 % 19.7 °C 1014.0 hPa 1.6 Km/h NNE 0.0 mm  22.5 °C 25.7 °C
Marta (VT) 24/09/18 10.58 23.8 °C 83 % 20.8 °C 1014.1 hPa 7.6 Km/h SW 0.0 mm  20.1 °C 23.8 °C
Masiera di Bagnacavallo (RA) 24/09/18 10.56 24.5 °C 74 % 19.6 °C 1011.3 hPa 5.5 Km/h NE 0.0 mm  20.6 °C 24.4 °C
Massone di Arco (TN) 24/09/18 10.59 22.9 °C 33 % 5.8 °C 1016.7 hPa 11.0 Km/h E 0.0 mm  20.8 °C 23.0 °C
Merlara (PD) 24/09/18 10.55 23.7 °C 76 % 19.2 °C 1014.3 hPa 17.7 Km/h SE 0.0 mm  17.3 °C 23.7 °C
Mezzana Bigli (PV) 24/09/18 10.55 25.9 °C 27 % 5.5 °C 1014.5 hPa 8.2 Km/h NW 0.0 mm  18.9 °C 25.9 °C
Migliarino (FE) 24/09/18 10.59 24.3 °C 72 % 18.9 °C 1014.1 hPa 7.2 Km/h N 0.0 mm  20.6 °C 25.1 °C
Miglionico (MT) 24/09/18 10.50 24.7 °C 64 % 17.4 °C 1011.1 hPa 0.0 Km/h --- 0.0 mm  18.6 °C 26.7 °C
Miola di Piné (TN) 24/09/18 10.58 15.4 °C 37 % 0.8 °C 1018.5 hPa 21.9 Km/h NE 0.0 mm  14.1 °C 17.1 °C
Mirabella Imbaccari (CT) 24/09/18 10.56 22.7 °C 78 % 18.7 °C 1015.9 hPa 11.1 Km/h WNW 0.0 mm  18.7 °C 22.7 °C
Mizzole (VR) 24/09/18 10.59 25.1 °C 69 % 19.0 °C 1015.1 hPa 2.2 Km/h SE 0.0 mm  17.8 °C 25.1 °C
Molina (VR) 24/09/18 10.48 19.7 °C 28 % 0.7 °C 1019.0 hPa 4.9 Km/h N 0.0 mm  16.3 °C 19.8 °C
Monasterolo Torinese (TO) 24/09/18 10.55 22.8 °C 61 % 14.9 °C 1011.5 hPa 3.2 Km/h ESE 0.0 mm  17.4 °C 22.9 °C
Moneglia loc. Casale (GE) 24/09/18 10.58 26.7 °C 64 % 19.3 °C 1015.3 hPa 1.6 Km/h S 0.2 mm  20.3 °C 26.7 °C
Moneglia loc. La Secca (GE) 24/09/18 10.59 26.5 °C 75 % 21.7 °C 1013.7 hPa 3.2 Km/h SW 0.0 mm  22.3 °C 26.8 °C
Mongrando San Michele (BI) 24/09/18 10.50 23.2 °C 58 % 14.5 °C 1015.1 hPa 3.2 Km/h SE 0.2 mm  15.8 °C 23.3 °C
Monselice (PD) 24/09/18 10.54 23.6 °C 73 % 18.5 °C 1017.6 hPa 9.7 Km/h E 0.0 mm  18.7 °C 23.5 °C
Monte Rufeno (VT) 19/09/18 10.03 0.0 °C 0 % 15.1 °C 0.0 hPa 0.0 Km/h --- 0.0 mm  0.0 °C 0.0 °C
Montebello Vicentino loc. Selva (VI) 24/09/18 10.59 23.7 °C 42 % 10.0 °C 1013.9 hPa 9.3 Km/h E 0.0 mm  17.4 °C 23.9 °C
Montecchio Maggiore Sant'Urbano (VI) 24/09/18 10.48 23.5 °C 48 % 11.8 °C 1020.9 hPa 14.3 Km/h NE 0.0 mm  17.2 °C 23.5 °C
Montelabbate (PU) 24/09/18 10.49 26.1 °C 64 % 18.7 °C 1009.0 hPa 4.2 Km/h WSW 0.0 mm  23.1 °C 26.1 °C
Montespertoli (FI) 24/09/18 10.49 25.5 °C 64 % 18.2 °C 1017.1 hPa 2.2 Km/h W 0.0 mm  20.5 °C 25.5 °C
Montopoli in val d'Arno Loc. Capanne (PI) 24/09/18 10.45 25.1 °C 73 % 19.9 °C 1014.4 hPa 4.7 Km/h NNE 0.0 mm  20.9 °C 25.1 °C
Montorio (VR) 24/09/18 10.49 24.7 °C 70 % 18.9 °C 1016.8 hPa 1.8 Km/h SW 0.0 mm  18.2 °C 24.7 °C
Montorso Vicentino (VI) 24/09/18 10.59 23.8 °C 59 % 15.3 °C 1014.9 hPa 17.7 Km/h SW 0.0 mm  16.9 °C 23.8 °C
Morbegno (SO) 24/09/18 10.59 23.2 °C 31 % 5.1 °C 1017.1 hPa 10.8 Km/h W 1.0 mm  16.3 °C 23.4 °C
Musigliano (PI) 24/09/18 10.57 26.3 °C 66 % 19.4 °C 1014.1 hPa 6.0 Km/h N 0.0 mm  22.5 °C 26.8 °C
Muzzano (BI) 24/09/18 10.50 21.3 °C 61 % 13.5 °C 1013.5 hPa 1.6 Km/h SSE 0.0 mm  17.0 °C 21.3 °C
Nichelino (TO) 24/09/18 10.50 21.1 °C 87 % 18.9 °C 1017.5 hPa 3.2 Km/h SSE 0.0 mm  18.6 °C 21.3 °C
Novara (NO) 24/09/18 10.50 25.6 °C 28 % 5.7 °C 1015.3 hPa 1.6 Km/h W 0.0 mm  16.5 °C 26.1 °C
Onara extraurbana (PD) 24/09/18 10.54 24.4 °C 76 % 19.9 °C 1014.5 hPa 0.0 Km/h E 0.0 mm  17.8 °C 24.4 °C
Oppeano (VR) 23/09/18 20.10 22.4 °C 71 % 16.9 °C 1010.7 hPa 0.0 Km/h --- 0.0 mm  17.6 °C 28.1 °C
Oristano (OR) 24/09/18 10.59 26.7 °C 70 % 20.7 °C 1016.6 hPa 16.5 Km/h NNW 0.0 mm  20.9 °C 26.9 °C
Orosei (NU) 24/09/18 10.56 28.2 °C 58 % 19.2 °C 1013.8 hPa 20.9 Km/h WNW 0.0 mm  23.2 °C 28.3 °C
Ortonovo (SP) 24/09/18 10.59 26.7 °C 68 % 20.3 °C 1012.4 hPa 12.9 Km/h SE 0.0 mm  19.8 °C 26.8 °C
Orvieto (TR) 24/09/18 10.46 25.7 °C 75 % 20.9 °C 1013.8 hPa 2.4 Km/h SSW 0.0 mm  19.8 °C 25.7 °C
Ovaro loc. Liariis (UD) 24/09/18 10.45 17.1 °C 43 % 4.4 °C 1019.6 hPa 3.2 Km/h NW 11.0 mm  9.7 °C 17.3 °C
Pace del Mela (ME) 24/09/18 10.59 27.3 °C 58 % 18.3 °C 1017.3 hPa 5.7 Km/h NW 0.0 mm  20.8 °C 27.3 °C
Padergnone (TN) 24/09/18 10.45 21.7 °C 36 % 6.0 °C 1018.3 hPa 23.0 Km/h NNE 0.0 mm  20.1 °C 22.5 °C
Parella (TO) 24/09/18 10.49 23.3 °C 56 % 14.1 °C 1013.4 hPa 0.0 Km/h SE 0.0 mm  18.4 °C 23.3 °C
Pastrengo (VR) 24/09/18 10.49 24.5 °C 24 % 2.6 °C 1017.2 hPa 6.1 Km/h SW 0.0 mm  19.8 °C 24.5 °C
Pastrengo Corné (VR) 24/09/18 10.59 24.3 °C 32 % 6.5 °C 1013.0 hPa 4.7 Km/h ENE 0.0 mm  18.9 °C 24.3 °C
Pecetto Torinese (TO) 24/09/18 10.49 20.5 °C 88 % 18.4 °C 1014.8 hPa 0.0 Km/h SE 0.0 mm  18.1 °C 20.7 °C
Pedara (CT) 24/09/18 10.59 24.9 °C 73 % 19.7 °C 940.0 hPa 6.5 Km/h S 0.0 mm  18.6 °C 25.0 °C
Pedemonte (VR) 24/09/18 10.55 24.9 °C 31 % 6.6 °C 1014.1 hPa 14.0 Km/h NE 0.0 mm  17.2 °C 24.9 °C
Perarolo di Arcugnano (VI) 24/09/18 10.59 22.9 °C 70 % 17.2 °C 986.1 hPa 9.0 Km/h NNW 0.0 mm  17.7 °C 22.9 °C
Perugia San Mariano (PG) 24/09/18 10.45 24.1 °C 79 % 20.2 °C 1015.6 hPa 4.0 Km/h SW 0.0 mm  19.9 °C 24.1 °C
Peschiera del Garda (VR) 24/09/18 10.55 25.7 °C 36 % 9.5 °C 1015.1 hPa 17.7 Km/h N 0.0 mm  19.9 °C 25.7 °C
Pian di Castagné (VR) 24/09/18 10.45 22.4 °C 61 % 14.5 °C 1014.4 hPa 1.6 Km/h ENE 0.0 mm  18.3 °C 22.4 °C
Pian di Castagné2 (VR) 24/09/18 10.49 23.3 °C 55 % 13.8 °C 1016.8 hPa 4.3 Km/h SSE 0.0 mm  17.8 °C 23.3 °C
Pila Valsesia (VC) 24/09/18 10.50 19.8 °C 68 % 13.8 °C 1012.5 hPa 1.6 Km/h E 0.0 mm  14.6 °C 19.8 °C
Piovà Massaia (AT) 24/09/18 10.58 22.7 °C 80 % 19.1 °C 1014.2 hPa 0.0 Km/h SSW 0.0 mm  18.2 °C 23.0 °C
Piraino contr. Fiumara (ME) 24/09/18 10.50 26.3 °C 76 % 21.7 °C 1017.1 hPa 6.0 Km/h SW 0.0 mm  20.0 °C 26.3 °C
Pisa zona I Passi (PI) 24/09/18 10.59 24.8 °C 67 % 18.2 °C 1015.3 hPa 8.6 Km/h NE 0.0 mm  21.8 °C 25.2 °C
Pojana Maggiore Cagnano (VI) 24/09/18 10.53 24.2 °C 76 % 19.7 °C 1013.0 hPa 9.0 Km/h 0.0 mm  17.2 °C 24.2 °C
Pomezia (RM) 24/09/18 10.59 25.1 °C 80 % 21.4 °C 1013.9 hPa 14.5 Km/h E 0.0 mm  21.1 °C 25.1 °C
Ponte San Nicolò (PD) 24/09/18 10.49 22.6 °C 83 % 19.6 °C 1015.1 hPa 6.4 Km/h E 0.0 mm  18.8 °C 22.6 °C
Ponte San Pellegrino (MO) 24/09/18 10.57 25.1 °C 62 % 17.3 °C 1018.1 hPa 0.0 Km/h NW 0.0 mm  19.1 °C 25.1 °C
Pordenone (PN) 24/09/18 10.50 24.9 °C 30 % 6.2 °C 1015.2 hPa 8.0 Km/h NNE 0.0 mm  19.3 °C 24.9 °C
Pozzolo Formigaro (AL) 24/09/18 10.55 25.7 °C 39 % 10.7 °C 1016.5 hPa 5.4 Km/h N 0.0 mm  19.0 °C 25.7 °C
Pray (BI) 24/09/18 10.59 22.3 °C 49 % 11.1 °C 1015.0 hPa 8.0 Km/h SE 0.0 mm  15.9 °C 22.4 °C
Reggello (FI) 24/09/18 10.59 22.7 °C 77 % 18.5 °C 1017.5 hPa 4.8 Km/h O 0.0 mm  19.5 °C 22.8 °C
Rifugio Bocca di Selva (VR) 24/09/18 10.59 11.4 °C 48 % 0.8 °C 1015.8 hPa 48.3 Km/h N 0.0 mm  9.9 °C 13.1 °C
Rifugio Primaneve (VR) 24/09/18 10.50 9.4 °C 51 % -0.3 °C 1015.8 hPa 22.5 Km/h NNW 0.8 mm  7.2 °C 11.8 °C
Rimini (RN) 24/09/18 10.50 25.7 °C 65 % 18.7 °C 1014.5 hPa 0.0 Km/h NNW 0.0 mm  22.3 °C 26.0 °C
Rimini Zona Palas (RN) 24/09/18 10.45 25.2 °C 69 % 18.9 °C 1014.4 hPa 8.0 Km/h N 0.0 mm  22.5 °C 25.5 °C
Rivalta sul Mincio (MN) 24/09/18 10.57 27.0 °C 50 % 15.6 °C 1014.5 hPa 10.6 Km/h ENE 0.0 mm  18.9 °C 27.2 °C
Romano d'Ezzelino Fellette (VI) 24/09/18 10.58 21.8 °C 45 % 9.3 °C 1018.8 hPa 5.9 Km/h WSW 0.0 mm  17.4 °C 21.8 °C
Ronciglione Centro (VT) 24/09/18 10.55 20.9 °C 94 % 19.9 °C 1016.0 hPa 1.9 Km/h SSE 0.0 mm  19.3 °C 21.4 °C
Ronciglione - Ponte Cuzzoli (VT) 24/09/18 10.55 21.4 °C 85 % 18.8 °C 1015.3 hPa 3.2 Km/h W 0.0 mm  18.9 °C 21.8 °C
Rosolina (RO) 24/09/18 10.45 23.0 °C 88 % 20.9 °C 1015.5 hPa 14.5 Km/h NE 0.0 mm  18.7 °C 23.0 °C
S. Giovanni Ilarione2 (VR) 24/09/18 10.55 26.1 °C 28 % 6.1 °C 1014.1 hPa 3.2 Km/h ENE 0.0 mm  17.4 °C 26.1 °C
S. Giovanni Lupatoto (VR) 23/09/18 21.50 21.7 °C 82 % 18.5 °C 1012.4 hPa 0.0 Km/h --- 0.0 mm  21.7 °C 27.1 °C
S. Giovanni Rotondo (FG) 24/09/18 10.55 24.2 °C 60 % 15.9 °C 1013.3 hPa 1.6 Km/h WSW 0.0 mm  18.7 °C 24.3 °C
S. Lorenzo di Vittorio Veneto (TV) 24/09/18 11.00 23.2 °C 23 % 0.9 °C 1016.0 hPa 16.1 Km/h SE 0.0 mm  17.4 °C 23.4 °C
S. Lorenzo Nuovo (VT) 24/09/18 10.59 21.1 °C 90 % 19.4 °C 1014.2 hPa 9.4 Km/h SSE 0.0 mm  18.8 °C 21.1 °C
S. Maria di Zevio Loc. 3 Ponti (VR) 24/09/18 10.59 24.4 °C 0 % 0.0 °C 1016.3 hPa 4.0 Km/h ESE 0.0 mm  17.9 °C 24.4 °C
S. Maria Maddalena (RO) 24/09/18 10.55 23.9 °C 78 % 20.0 °C 1014.5 hPa 8.0 Km/h NE 0.0 mm  19.7 °C 23.9 °C
S. Martino Lupari (PD) 24/09/18 10.50 22.3 °C 82 % 19.1 °C 834.0 hPa 1.6 Km/h NE 0.0 mm  18.1 °C 22.4 °C
S. Zeno di Mont. Prada (VR) 24/09/18 10.50 15.9 °C 44 % 3.6 °C 1013.8 hPa 1.6 Km/h N 0.0 mm  13.0 °C 16.3 °C
Sacile (PN) 24/09/18 10.45 24.9 °C 32 % 7.1 °C 1015.8 hPa 8.0 Km/h E 0.0 mm  18.1 °C 24.9 °C
Sacile2 (PN) 24/09/18 10.45 25.3 °C 53 % 15.2 °C 1015.2 hPa 8.5 Km/h E 0.0 mm  17.6 °C 25.3 °C
San Benedetto del Tronto (AP) 24/09/18 10.30 26.0 °C 74 % 21.0 °C 1013.5 hPa 0.0 Km/h SW 0.0 mm  21.1 °C 26.7 °C
San Cataldo (CL) 24/09/18 10.58 21.4 °C 79 % 17.6 °C 1017.3 hPa 6.9 Km/h WNW 0.0 mm  17.8 °C 21.4 °C
San Giovanni la Punta Trappeto (CT) 24/09/18 10.55 27.4 °C 68 % 21.0 °C 1017.0 hPa 4.8 Km/h SW 0.0 mm  20.1 °C 27.4 °C
San Nazario (VI) 24/09/18 10.43 25.3 °C 10 % -8.5 °C 1014.3 hPa 17.2 Km/h W 0.0 mm  18.6 °C 25.3 °C
San Pietro di Rosà (VI) 24/09/18 10.59 25.9 °C 31 % 7.5 °C 1019.2 hPa 11.1 Km/h NE 0.0 mm  17.0 °C 25.9 °C
San Pietro in Cariano (VR) 24/09/18 10.49 24.9 °C 18 % -1.0 °C 1014.8 hPa 28.0 Km/h NE 0.0 mm  18.4 °C 24.9 °C
San Salvo3 (CH) 24/09/18 10.59 27.9 °C 54 % 17.7 °C 1010.9 hPa 11.3 Km/h NE 0.0 mm  21.6 °C 28.1 °C
San Vito (CA) 24/09/18 10.59 20.8 °C 15 % -6.8 °C 1012.4 hPa 0.0 Km/h ENE 0.0 mm  20.8 °C 20.8 °C
San Vito di Negrar (VR) 24/09/18 10.55 26.3 °C 24 % 4.1 °C 1016.2 hPa 11.3 Km/h N 0.0 mm  17.5 °C 26.3 °C
Santa Maria di Negrar (VR) 24/09/18 10.49 23.8 °C 46 % 11.5 °C 1015.8 hPa 2.1 Km/h W 0.0 mm  17.1 °C 23.8 °C
Sarcedo (VI) 24/09/18 10.59 26.0 °C 26 % 5.0 °C 1014.2 hPa 8.6 Km/h W 0.0 mm  16.4 °C 26.4 °C
Savelli (KR) 24/09/18 10.59 24.7 °C 57 % 15.6 °C 1014.0 hPa 7.8 Km/h ESE 0.0 mm  19.8 °C 24.7 °C
Schio (VI) 24/09/18 10.35 25.9 °C 23 % 3.2 °C 1016.4 hPa 12.9 Km/h N 0.0 mm  17.4 °C 26.1 °C
Schio Monte Magré (VI) 24/09/18 10.59 23.2 °C 29 % 4.2 °C 0.0 hPa 8.0 Km/h NNW 0.0 mm  16.4 °C 23.4 °C
Seremange Erzange (Moselle) 24/09/18 10.59 12.7 °C 75 % 8.4 °C 1035.2 hPa 0.0 Km/h ENE 0.0 mm  6.6 °C 10.9 °C
Sinnai (CA) 24/09/18 10.40 26.5 °C 70 % 20.6 °C 1016.1 hPa 12.9 Km/h NW 0.0 mm  22.2 °C 26.7 °C
Soave Borgo Bassano (VR) 24/09/18 10.55 25.1 °C 52 % 14.5 °C 1014.9 hPa 11.0 Km/h ENE 0.0 mm  17.9 °C 25.1 °C
Sona Loc. La Colombara (VR) 24/09/18 10.00 24.8 °C 34 % 7.8 °C 1010.4 hPa 3.0 Km/h NNE 0.0 mm  17.3 °C 24.8 °C
Soriso (NO) 24/09/18 10.50 21.7 °C 37 % 6.3 °C 1015.6 hPa 8.0 Km/h NNE 0.0 mm  17.1 °C 21.7 °C
Staranzano (GO) 24/09/18 10.40 21.0 °C 54 % 11.3 °C 1017.8 hPa 14.5 Km/h E 0.0 mm  19.7 °C 21.9 °C
Stiore - Monteveglio (BO) 24/09/18 10.59 24.3 °C 68 % 18.0 °C 1011.6 hPa 4.8 Km/h NE 0.0 mm  18.4 °C 24.3 °C
Taio Mollaro (TN) 24/09/18 10.58 21.7 °C 30 % 3.4 °C 1021.4 hPa 3.2 Km/h N 0.2 mm  14.6 °C 22.2 °C
Taranto (TA) 24/09/18 10.55 26.1 °C 62 % 18.3 °C 1010.7 hPa 6.5 Km/h W 0.0 mm  22.4 °C 26.2 °C
Tombolo (PD) 24/09/18 10.59 23.8 °C 66 % 17.1 °C 1015.9 hPa 11.9 Km/h SE 0.0 mm  18.2 °C 23.8 °C
Torino Regio Parco (TO) 24/09/18 10.59 22.8 °C 80 % 19.2 °C 1016.9 hPa 9.1 Km/h E 0.0 mm  18.4 °C 24.4 °C
Torri (FI) 20/09/18 09.45 21.4 °C 75 % 16.8 °C 1018.0 hPa 1.6 Km/h S 0.0 mm  16.4 °C 21.9 °C
Torrita di Siena (SI) 24/09/18 10.50 23.9 °C 76 % 19.5 °C 1015.8 hPa 3.2 Km/h NE 0.0 mm  15.9 °C 24.1 °C
Tregnago Loc. Centro (VR) 24/09/18 10.45 21.9 °C 63 % 14.6 °C 1008.7 hPa 8.0 Km/h SSE 0.0 mm  17.9 °C 23.3 °C
Trento (TN) 24/09/18 10.59 23.3 °C 30 % 4.7 °C 1018.0 hPa 22.5 Km/h NE 0.0 mm  20.5 °C 23.3 °C
Treviso (TV) 24/09/18 10.57 23.8 °C 44 % 10.8 °C 1015.8 hPa 7.0 Km/h NE 0.0 mm  18.4 °C 23.8 °C
Tuscania (VT) 24/09/18 09.15 21.9 °C 91 % 20.4 °C 1014.5 hPa 1.7 Km/h SE 0.0 mm  20.7 °C 21.9 °C
Val Lastaro (VI) 24/09/18 10.54 16.7 °C 35 % 1.1 °C 1016.6 hPa 4.8 Km/h WNW 0.0 mm  12.3 °C 16.7 °C
Valdagno (VI) 24/09/18 10.59 24.6 °C 20 % 0.1 °C 997.9 hPa 6.1 Km/h NE 0.0 mm  16.7 °C 26.3 °C
Valdobbiadene San Pietro di Barbozza (TV) 24/09/18 10.55 23.1 °C 30 % 4.5 °C 1014.8 hPa 4.8 Km/h WNW 0.0 mm  18.0 °C 23.3 °C
Valentano (VT) 24/09/18 10.59 21.7 °C 84 % 18.9 °C 1013.7 hPa 3.2 Km/h SE 0.3 mm  18.9 °C 21.7 °C
Valenza (AL) 24/09/18 10.50 24.2 °C 28 % 4.6 °C 1014.8 hPa 14.5 Km/h NNE 0.0 mm  18.8 °C 24.2 °C
Valli del Pasubio loc. Gisbenti (VI) 24/09/18 10.59 21.3 °C 27 % 1.5 °C 973.0 hPa 7.4 Km/h N 0.0 mm  14.0 °C 22.0 °C
Varese Ligure (SP) 24/09/18 10.59 25.1 °C 10 % -8.6 °C 1009.9 hPa 8.0 Km/h ESE 0.0 mm  19.1 °C 25.3 °C
Vasto (CH) 24/09/18 10.59 27.5 °C 10 % -6.8 °C 1012.0 hPa 6.0 Km/h NE 0.0 mm  20.1 °C 29.0 °C
Vattaro fraz. Pian dei Pradi (TN) 24/09/18 10.59 16.8 °C 42 % 3.8 °C 1018.6 hPa 26.9 Km/h N 0.0 mm  15.4 °C 17.0 °C
Vazzo Roveré Veronese (VR) 24/09/18 10.59 19.8 °C 46 % 7.8 °C 1012.7 hPa 3.2 Km/h SE 0.0 mm  15.1 °C 19.8 °C
Verona Bgo Venezia (iz3sly) (VR) 24/09/18 10.51 24.6 °C 73 % 19.5 °C 1013.4 hPa 3.2 Km/h NW 0.0 mm  17.9 °C 24.6 °C
Verona Cadidavid2 (VR) 24/09/18 10.45 24.1 °C 66 % 17.3 °C 1013.2 hPa 4.7 Km/h E 0.0 mm  17.6 °C 24.1 °C
Vicenza Pecori Giraldi (VI) 24/09/18 10.45 25.2 °C 69 % 19.1 °C 1016.5 hPa 3.9 Km/h ENE 0.0 mm  18.2 °C 25.2 °C
Vicenza S. Lazzaro (VI) 24/09/18 10.59 24.6 °C 62 % 16.7 °C 1014.6 hPa 13.0 Km/h E 0.0 mm  18.0 °C 24.7 °C
Vicenza San Gaetano (VI) 24/09/18 11.00 25.3 °C 68 % 19.0 °C 1015.3 hPa 0.1 Km/h SE 0.0 mm  17.4 °C 25.3 °C
Vieste (FG) 24/09/18 11.00 28.8 °C 49 % 17.0 °C 1014.7 hPa 13.9 Km/h WNW 0.0 mm  21.7 °C 28.8 °C
Vigardolo (VI) 24/09/18 10.49 24.6 °C 61 % 16.6 °C 1014.2 hPa 3.5 Km/h E 0.0 mm  17.5 °C 24.6 °C
Vigasio (VR) 23/09/18 09.20 20.2 °C 75 % 15.6 °C 1016.6 hPa 0.0 Km/h ESE 0.0 mm  16.9 °C 20.6 °C
Vigevano (PV) 23/09/18 23.49 22.8 °C 73 % 17.7 °C 1010.9 hPa 2.5 Km/h SSE 0.0 mm  18.7 °C 30.1 °C
Villabartolomea (VR) 20/09/18 02.45 20.2 °C 89 % 18.3 °C 1017.8 hPa 0.0 Km/h NE 0.0 mm  20.2 °C 21.2 °C
Viozene Toria (CN) 24/09/18 10.59 19.0 °C 46 % 7.1 °C 1014.3 hPa 7.0 Km/h NE 0.0 mm  10.9 °C 19.0 °C
Viterbo Santa Barbara (VT) 24/09/18 11.00 23.4 °C 80 % 19.7 °C 1014.3 hPa 0.0 Km/h SSW 0.0 mm  19.7 °C 23.7 °C
Viterbo Strada Bagni (VT) 24/09/18 11.00 0.0 °C 0 % 0.0 °C 1015.4 hPa 0.0 Km/h N 0.0 mm  20.8 °C 22.3 °C
Vitorchiano Pallone (VT) 24/09/18 10.50 23.1 °C 83 % 20.0 °C 1013.4 hPa 3.2 Km/h WNW 0.0 mm  20.1 °C 23.1 °C
Vittorio Veneto Parco Fenderl (TV) 24/09/18 10.40 24.5 °C 23 % 2.0 °C 1016.1 hPa 9.7 Km/h NNW 0.0 mm  16.7 °C 24.7 °C
Volpago del Montello (TV) 24/09/18 10.45 24.4 °C 32 % 6.6 °C 1015.5 hPa 9.7 Km/h NNW 0.0 mm  17.3 °C 24.4 °C
 
(*) = Precipitazioni nelle ultime 24h.
Dati non aggiornati nell'ultima ora.
   
In collaborazione con:
 
Top! Top!